FRIANT DAM (MILLERTON) (MIL)

Elevation: 581' · SAN JOAQUIN R basin · Operator: US Bureau of Reclamation

Provisional data, subject to change.
Query executed Tuesday at 2:19:46   clock

Select a sensor type for a plot of data.
Note: Reservoir Flows are daily averages.

Earlier

Date RES ELE    STORAGE    RES CHG    TOC STO    ABV TOC    OUTFLOW    INFLOW    EVAP    FNF    RIV REL    PPT INC    SPILL   
 FEET   AF   AF   AF   AF   CFS   CFS   CFS   CFS   CFS   INCHES   CFS  
08/01/2016 538.62 347555 -5283 520500 -172945 4000 1377 40 437 796 0.00 0
08/02/2016 537.26 342279 -5276 520500 -178221 4073 1463 50 432 e 793 0.00 0
08/03/2016 535.82 336745 -5534 520500 -- 4086 1345 49 431 e 790 0.00 0
08/04/2016 534.40 331345 -5400 520500 -189155 3799 1117 40 331 801 0.00 0
08/05/2016 533.14 326595 -4750 520500 -193905 3646 1291 40 413 738 0.00 0
08/06/2016 531.74 321368 -5227 520500 -199132 3371 776 40 282 572 0.00 0
08/07/2016 530.31 316082 -5286 520500 -204418 3520 893 38 280 686 0.00 0
08/08/2016 528.94 311046 -5036 520500 -209454 3669 1173 43 229 e 795 0.00 0
08/09/2016 527.67 306420 -4626 520500 -214080 3464 1168 36 229 e 792 0.00 0
08/10/2016 526.26 301331 -5089 520500 -219169 3393 865 38 228 e 790 0.00 0
08/11/2016 525.38 298183 -3148 520500 -222317 2900 1353 40 151 788 0.00 0
08/12/2016 524.73 295869 -2314 520500 -224631 2463 1335 39 76 565 0.00 0
08/13/2016 524.31 294381 -1488 520500 -226119 1974 1265 41 175 453 0.00 0
08/14/2016 523.99 293247 -1134 520500 -227253 2064 1542 50 200 453 0.00 0
08/15/2016 523.51 291558 -1689 520500 -228942 2356 1545 41 261 e 453 0.00 0
08/16/2016 522.81 289100 -2458 520500 -231400 2487 1289 41 261 e 452 0.00 0
08/17/2016 522.17 286865 -2235 520500 -233635 2506 1415 36 259 451 0.00 0
08/18/2016 521.58 284815 -2050 520500 -235685 2476 1479 37 198 451 0.00 0
08/19/2016 521.05 282978 -1837 520500 -237522 2272 1381 35 194 450 0.00 0
08/20/2016 520.51 281119 -1859 520500 -239381 1945 1046 38 117 448 0.00 0
08/21/2016 519.93 279124 -1995 520500 -241376 2017 1062 51 173 448 0.00 0
08/22/2016 519.27 276865 -2259 520500 -243635 2213 1112 38 220 447 0.00 0
08/23/2016 518.47 274140 -2725 520500 -246360 2290 951 35 260 446 0.00 0
08/24/2016 517.94 272341 -1799 520500 -248159 2345 1471 33 248 446 0.00 0
08/25/2016 517.29 270149 -2192 520500 -250351 2343 1273 35 -- 446 0.00 0
08/26/2016 516.67 268067 -2082 520500 -252433 2153 1132 29 98 445 0.00 0
08/27/2016 516.08 266093 -1974 520500 -254407 1856 885 24 178 445 0.00 0
08/28/2016 515.54 264298 -1795 520500 -256202 1870 993 28 93 444 0.00 0
08/29/2016 -- -- -- -- -- -- -- -- -- -- -- --
08/30/2016 -- -- -- -- -- -- -- -- -- -- -- --

Later | Latest

Warning! This data is preliminary and subject to revision.

Show MIL Map | Plot MIL Data | 1 Month MIL Data | Real-Time MIL Data | MIL Info